Time;durP1;ratioP1;P1;durP2;ratioP2;P2;SDS_P1;SDS_P2;PMS_P1;PMS_P2;Temp;Humidity;BMP_temperature;BMP_pressure;BME280_temperature;BME280_humidity;BME280_pressure;Samples;Min_cycle;Max_cycle;Signal;HPM_P1;HPM_P2
2023/09/21 00:00:20;;;;;;;;;;;;;;;19.45;60.34;100314.84;4225604;28;19931;-67
2023/09/21 00:02:28;;;;;;;;;;;;;;;19.42;60.19;100312.63;4225462;28;20015;-69
2023/09/21 00:04:32;;;;;;;;;;;;;;;19.41;60.53;100314.53;4228496;28;20026;-67
2023/09/21 00:06:36;;;;;;;;;;;;;;;19.40;60.44;100301.94;4227977;28;20038;-68
2023/09/21 00:08:41;;;;;;;;;;;;;;;19.40;60.62;100306.56;4226276;28;20015;-67
2023/09/21 00:10:43;;;;;;;;;;;;;;;19.40;60.62;100309.28;4227930;28;20457;-68
2023/09/21 00:12:45;;;;;;;;;;;;;;;19.39;60.43;100304.91;4227754;28;20365;-67
2023/09/21 00:14:48;;;;;;;;;;;;;;;19.37;60.53;100298.81;4227741;28;20368;-67
2023/09/21 00:16:50;;;;;;;;;;;;;;;19.37;60.67;100294.22;4227472;28;20034;-67
2023/09/21 00:18:53;;;;;;;;;;;;;;;19.36;60.74;100300.75;4217627;28;20018;-67
2023/09/21 00:20:55;;;;;;;;;;;;;;;19.34;60.91;100299.31;4227214;28;20372;-67
2023/09/21 00:22:59;;;;;;;;;;;;;;;19.31;60.95;100292.44;4226807;28;20034;-67
2023/09/21 00:25:09;;;;;;;;;;;;;;;19.30;60.88;100292.69;4227237;28;20023;-68
2023/09/21 00:27:12;;;;;;;;;;;;;;;19.30;61.10;100292.69;4228598;28;20022;-68
2023/09/21 00:29:14;;;;;;;;;;;;;;;19.30;61.09;100292.69;4227873;28;20552;-68
2023/09/21 00:31:16;;;;;;;;;;;;;;;19.29;61.07;100289.09;4223203;28;20386;-68
2023/09/21 00:33:17;;;;;;;;;;;;;;;19.27;60.85;100283.06;4227175;28;19999;-67
2023/09/21 00:35:23;;;;;;;;;;;;;;;19.25;61.06;100294.25;4217265;28;20542;-68
2023/09/21 00:37:25;;;;;;;;;;;;;;;19.23;60.95;100288.19;4228338;28;20006;-68
2023/09/21 00:39:31;;;;;;;;;;;;;;;19.22;61.16;100278.31;4224386;28;20014;-67
2023/09/21 00:41:34;;;;;;;;;;;;;;;19.22;61.24;100281.06;4227345;28;20023;-67
2023/09/21 00:43:36;;;;;;;;;;;;;;;19.22;61.07;100280.22;4226986;28;20022;-68
2023/09/21 00:45:38;;;;;;;;;;;;;;;19.21;61.16;100286.78;4224521;28;20473;-67
2023/09/21 00:47:42;;;;;;;;;;;;;;;19.19;61.26;100277.97;4226299;28;20027;-67
2023/09/21 00:49:44;;;;;;;;;;;;;;;19.17;61.49;100274.63;4218081;28;20012;-67
2023/09/21 00:51:47;;;;;;;;;;;;;;;19.15;61.70;100274.06;4226640;28;20600;-67
2023/09/21 00:53:49;;;;;;;;;;;;;;;19.13;61.45;100282.53;4227059;28;20019;-67
2023/09/21 00:55:53;;;;;;;;;;;;;;;19.13;61.64;100273.50;4230578;28;20011;-68
2023/09/21 00:57:55;;;;;;;;;;;;;;;19.12;61.73;100280.84;4231470;28;20015;-67
2023/09/21 00:59:58;;;;;;;;;;;;;;;19.11;61.61;100278.34;4228881;28;20094;-66
2023/09/21 01:02:00;;;;;;;;;;;;;;;19.07;61.69;100278.88;4227178;28;20014;-67
2023/09/21 01:04:06;;;;;;;;;;;;;;;19.06;61.88;100277.19;4229754;28;20019;-67
2023/09/21 01:06:08;;;;;;;;;;;;;;;19.05;61.87;100271.97;4229377;28;20022;-68
2023/09/21 01:08:10;;;;;;;;;;;;;;;19.04;61.78;100276.63;4237181;27;20023;-68
2023/09/21 01:10:13;;;;;;;;;;;;;;;19.02;61.83;100276.03;4226225;28;20330;-66
2023/09/21 01:12:16;;;;;;;;;;;;;;;19.01;61.94;100270.78;4228774;28;20019;-68
2023/09/21 01:14:18;;;;;;;;;;;;;;;19.00;62.00;100272.72;4230523;28;20026;-68
2023/09/21 01:16:23;;;;;;;;;;;;;;;18.99;62.04;100262.81;4225927;28;19931;-68
2023/09/21 01:18:25;;;;;;;;;;;;;;;18.98;62.12;100261.19;4220789;28;20074;-68
2023/09/21 01:20:32;;;;;;;;;;;;;;;18.97;62.18;100264.97;4227027;28;20065;-68
2023/09/21 01:22:33;;;;;;;;;;;;;;;18.97;62.07;100255.94;4227210;28;20010;-69
2023/09/21 01:24:39;;;;;;;;;;;;;;;18.95;62.08;100258.94;4221831;28;20445;-68
2023/09/21 01:26:41;;;;;;;;;;;;;;;18.94;62.04;100250.97;4229232;28;20019;-69
2023/09/21 01:28:44;;;;;;;;;;;;;;;18.94;62.16;100245.50;4237833;27;20023;-68
2023/09/21 01:30:48;;;;;;;;;;;;;;;18.94;62.21;100246.31;4237478;27;20029;-68
2023/09/21 01:32:52;;;;;;;;;;;;;;;18.91;62.12;100235.84;4228892;28;20030;-68
2023/09/21 01:34:54;;;;;;;;;;;;;;;18.89;62.18;100238.84;4229008;28;20370;-68
2023/09/21 01:36:56;;;;;;;;;;;;;;;18.88;62.30;100241.81;4229174;28;20365;-68
2023/09/21 01:38:58;;;;;;;;;;;;;;;18.87;62.37;100245.63;4220278;28;20041;-69
2023/09/21 01:41:02;;;;;;;;;;;;;;;18.87;62.49;100248.34;4229637;28;20023;-68
2023/09/21 01:43:05;;;;;;;;;;;;;;;18.86;62.58;100247.53;4237029;27;20005;-68
2023/09/21 01:45:13;;;;;;;;;;;;;;;18.87;62.71;100240.16;4220762;28;20014;-69
2023/09/21 01:47:17;;;;;;;;;;;;;;;18.88;62.66;100241.81;4229500;28;20010;-67
2023/09/21 01:49:20;;;;;;;;;;;;;;;18.86;62.49;100241.25;4229418;28;20649;-69
2023/09/21 01:51:21;;;;;;;;;;;;;;;18.84;62.62;100241.50;4211310;28;19931;-68
2023/09/21 01:53:23;;;;;;;;;;;;;;;18.83;62.55;100233.50;4229099;28;20362;-68
2023/09/21 01:55:25;;;;;;;;;;;;;;;18.81;62.66;100238.34;4220411;28;20229;-67
2023/09/21 01:57:29;;;;;;;;;;;;;;;18.79;62.79;100226.84;4220747;28;19927;-69
2023/09/21 01:59:31;;;;;;;;;;;;;;;18.76;62.76;100230.91;4228286;28;20092;-68
2023/09/21 02:01:33;;;;;;;;;;;;;;;18.76;62.80;100230.91;4219491;28;20027;-67
2023/09/21 02:03:38;;;;;;;;;;;;;;;18.77;62.63;100227.09;4228965;28;20245;-68
2023/09/21 02:05:40;;;;;;;;;;;;;;;18.78;62.84;100236.09;4229636;28;20027;-68
2023/09/21 02:07:43;;;;;;;;;;;;;;;18.76;62.72;100233.66;4228706;28;20383;-69
2023/09/21 02:09:45;;;;;;;;;;;;;;;18.76;62.87;100227.31;4228592;28;20014;-68
2023/09/21 02:11:47;;;;;;;;;;;;;;;18.76;62.71;100222.72;4229055;28;20011;-67
2023/09/21 02:13:50;;;;;;;;;;;;;;;18.73;62.74;100226.75;4219876;28;20789;-68
2023/09/21 02:15:52;;;;;;;;;;;;;;;18.71;62.66;100215.22;4228751;28;20014;-68
2023/09/21 02:17:55;;;;;;;;;;;;;;;18.71;62.71;100212.50;4218776;28;19932;-66
2023/09/21 02:19:58;;;;;;;;;;;;;;;18.71;62.84;100209.75;4228758;28;20014;-68
2023/09/21 02:22:00;;;;;;;;;;;;;;;18.71;62.86;100217.13;4219751;28;20022;-68
2023/09/21 02:24:04;;;;;;;;;;;;;;;18.70;62.75;100221.75;4230073;28;20014;-69
2023/09/21 02:26:07;;;;;;;;;;;;;;;18.68;62.71;100212.97;4229639;28;20022;-68
2023/09/21 02:28:12;;;;;;;;;;;;;;;18.67;62.90;100207.75;4230123;28;20007;-66
2023/09/21 02:30:14;;;;;;;;;;;;;;;18.65;62.78;100209.88;4228391;28;20019;-67
2023/09/21 02:32:17;;;;;;;;;;;;;;;18.64;63.09;100205.50;4225073;28;20457;-68
2023/09/21 02:34:20;;;;;;;;;;;;;;;18.63;62.87;100209.31;4228643;28;20019;-67
2023/09/21 02:36:22;;;;;;;;;;;;;;;18.60;62.71;100202.41;4229291;28;20023;-68
2023/09/21 02:38:26;;;;;;;;;;;;;;;18.61;62.94;100200.53;4227953;28;20084;-66
2023/09/21 02:40:28;;;;;;;;;;;;;;;18.60;62.92;100199.66;4226414;28;20022;-67
2023/09/21 02:42:29;;;;;;;;;;;;;;;18.59;63.04;100203.50;4229214;28;20129;-68
2023/09/21 02:44:31;;;;;;;;;;;;;;;18.58;63.22;100209.22;4229102;28;20026;-67
2023/09/21 02:46:35;;;;;;;;;;;;;;;18.55;63.02;100197.66;4220168;28;20372;-68
2023/09/21 02:48:37;;;;;;;;;;;;;;;18.55;63.18;100202.31;4227023;28;20026;-68
2023/09/21 02:50:39;;;;;;;;;;;;;;;18.53;63.17;100199.81;4227159;28;20449;-69
2023/09/21 02:52:45;;;;;;;;;;;;;;;18.50;63.20;100186.63;4225839;27;20014;-67
2023/09/21 02:54:47;;;;;;;;;;;;;;;18.49;63.20;100190.44;4227245;28;20489;-68
2023/09/21 02:56:51;;;;;;;;;;;;;;;18.48;63.20;100187.94;4226705;28;20060;-70
2023/09/21 02:58:53;;;;;;;;;;;;;;;18.46;63.28;100182.72;4219304;28;19978;-67
2023/09/21 03:00:55;;;;;;;;;;;;;;;18.44;63.18;100175.84;4227190;28;20018;-67
2023/09/21 03:03:00;;;;;;;;;;;;;;;18.44;63.10;100184.03;4226666;28;20030;-67
2023/09/21 03:05:03;;;;;;;;;;;;;;;18.43;63.01;100185.09;4227157;28;20018;-67
2023/09/21 03:07:05;;;;;;;;;;;;;;;18.42;63.10;100180.72;4227925;28;20070;-66
2023/09/21 03:09:08;;;;;;;;;;;;;;;18.41;62.97;100181.78;4227890;28;20501;-68
2023/09/21 03:11:11;;;;;;;;;;;;;;;18.41;63.07;100176.34;4218794;28;20415;-68
2023/09/21 03:13:18;;;;;;;;;;;;;;;18.40;63.03;100171.94;4227849;28;20022;-68
2023/09/21 03:15:22;;;;;;;;;;;;;;;18.38;63.01;100163.97;4219273;28;19932;-67
2023/09/21 03:17:23;;;;;;;;;;;;;;;18.37;63.07;100170.53;4227052;28;20023;-68
2023/09/21 03:19:27;;;;;;;;;;;;;;;18.36;63.33;100166.94;4218046;28;20034;-68
2023/09/21 03:21:30;;;;;;;;;;;;;;;18.35;63.41;100168.03;4218611;28;19963;-68
2023/09/21 03:23:32;;;;;;;;;;;;;;;18.34;63.26;100162.81;4228405;28;19994;-68
2023/09/21 03:25:40;;;;;;;;;;;;;;;18.33;63.29;100158.41;4219549;28;20022;-68
2023/09/21 03:27:42;;;;;;;;;;;;;;;18.32;63.43;100159.47;4219682;28;20003;-68
2023/09/21 03:29:45;;;;;;;;;;;;;;;18.31;63.61;100155.09;4226630;28;20489;-68
2023/09/21 03:31:48;;;;;;;;;;;;;;;18.30;63.52;100153.41;4227560;28;20298;-68
2023/09/21 03:33:50;;;;;;;;;;;;;;;18.28;63.69;100150.94;4225761;28;20366;-68
2023/09/21 03:35:54;;;;;;;;;;;;;;;18.25;63.58;100145.94;4225388;28;20027;-67
2023/09/21 03:37:57;;;;;;;;;;;;;;;18.25;63.52;100145.13;4215049;28;20026;-68
2023/09/21 03:39:58;;;;;;;;;;;;;;;18.23;63.68;100142.63;4217145;28;19924;-68
2023/09/21 03:42:00;;;;;;;;;;;;;;;18.22;63.75;100143.69;4225536;28;20031;-68
2023/09/21 03:44:03;;;;;;;;;;;;;;;18.19;63.65;100141.44;4225154;28;20035;-68
2023/09/21 03:46:05;;;;;;;;;;;;;;;18.17;63.75;100149.88;4227381;28;20641;-68
2023/09/21 03:48:08;;;;;;;;;;;;;;;18.15;63.66;100143.00;4227367;28;20035;-67
2023/09/21 03:50:12;;;;;;;;;;;;;;;18.10;63.79;100142.91;4217503;28;20018;-68
2023/09/21 03:52:16;;;;;;;;;;;;;;;18.11;63.89;100141.84;4235133;27;20461;-68
2023/09/21 03:54:19;;;;;;;;;;;;;;;18.10;63.87;100142.91;4218534;28;20023;-68
2023/09/21 03:56:22;;;;;;;;;;;;;;;18.09;63.78;100142.06;4225645;28;20401;-68
2023/09/21 03:58:28;;;;;;;;;;;;;;;18.10;63.62;100131.97;4224147;28;20394;-68
2023/09/21 04:00:36;;;;;;;;;;;;;;;18.11;63.60;100139.09;4217297;28;20461;-68
2023/09/21 04:02:37;;;;;;;;;;;;;;;18.12;63.51;100132.53;4217366;28;20043;-68
2023/09/21 04:04:39;;;;;;;;;;;;;;;18.12;63.40;100136.13;4234392;28;20042;-68
2023/09/21 04:06:42;;;;;;;;;;;;;;;18.13;63.67;100136.94;4227230;28;20022;-68
2023/09/21 04:08:45;;;;;;;;;;;;;;;18.13;63.62;100134.22;4226804;28;20026;-68
2023/09/21 04:10:47;;;;;;;;;;;;;;;18.13;63.46;100131.47;4226958;28;20045;-67
2023/09/21 04:12:50;;;;;;;;;;;;;;;18.11;63.48;100126.25;4209298;28;20035;-69
2023/09/21 04:14:52;;;;;;;;;;;;;;;18.11;63.20;100128.16;4219102;28;20026;-68
2023/09/21 04:16:56;;;;;;;;;;;;;;;18.11;63.43;100139.09;4234401;28;20014;-68
2023/09/21 04:18:59;;;;;;;;;;;;;;;18.10;63.53;100131.97;4227869;28;20019;-68
2023/09/21 04:21:01;;;;;;;;;;;;;;;18.09;63.57;100127.59;4234341;28;19977;-68
2023/09/21 04:23:03;;;;;;;;;;;;;;;18.07;63.62;100118.78;4223963;28;20030;-66
2023/09/21 04:25:09;;;;;;;;;;;;;;;18.06;63.70;100125.34;4224591;28;20016;-67
2023/09/21 04:27:11;;;;;;;;;;;;;;;18.03;63.66;100117.63;4224941;28;20011;-66
2023/09/21 04:29:15;;;;;;;;;;;;;;;18.01;63.63;100117.88;4225208;28;20034;-66
2023/09/21 04:31:18;;;;;;;;;;;;;;;18.01;63.68;100112.41;4226712;28;20357;-68
2023/09/21 04:33:20;;;;;;;;;;;;;;;17.99;63.67;100111.78;4221808;28;21269;-67
2023/09/21 04:35:22;;;;;;;;;;;;;;;17.96;63.72;100117.75;4228709;28;20031;-68
2023/09/21 04:37:26;;;;;;;;;;;;;;;17.94;63.77;100115.25;4220441;28;20019;-67
2023/09/21 04:39:28;;;;;;;;;;;;;;;17.93;64.01;100110.03;4228865;28;20022;-68
2023/09/21 04:41:33;;;;;;;;;;;;;;;17.92;63.83;100109.22;4220092;28;19962;-68
2023/09/21 04:43:39;;;;;;;;;;;;;;;17.91;63.94;100110.25;4229747;28;20014;-66
2023/09/21 04:45:42;;;;;;;;;;;;;;;17.90;64.14;100108.63;4229914;28;20057;-69
2023/09/21 04:47:45;;;;;;;;;;;;;;;17.89;64.15;100112.41;4230358;28;20010;-67
2023/09/21 04:49:48;;;;;;;;;;;;;;;17.87;64.16;100108.22;4228843;28;20750;-67
2023/09/21 04:51:50;;;;;;;;;;;;;;;17.84;64.15;100107.63;4221941;28;20028;-68
2023/09/21 04:53:52;;;;;;;;;;;;;;;17.83;64.32;100110.63;4227272;28;20014;-67
2023/09/21 04:55:55;;;;;;;;;;;;;;;17.83;64.25;100110.63;4227043;28;20019;-66
2023/09/21 04:57:58;;;;;;;;;;;;;;;17.81;64.19;100112.75;4220898;28;20015;-67
2023/09/21 05:00:04;;;;;;;;;;;;;;;17.80;64.38;100106.44;4220142;28;20018;-67
2023/09/21 05:02:05;;;;;;;;;;;;;;;17.79;64.10;100115.75;4221252;28;19964;-67
2023/09/21 05:04:07;;;;;;;;;;;;;;;17.78;64.21;100113.25;4225383;28;20003;-67
2023/09/21 05:06:10;;;;;;;;;;;;;;;17.77;64.59;100111.56;4228469;28;20439;-68
2023/09/21 05:08:14;;;;;;;;;;;;;;;17.76;64.52;100112.66;4227600;28;20015;-67
2023/09/21 05:10:16;;;;;;;;;;;;;;;17.73;64.63;100113.97;4220148;28;20350;-67
2023/09/21 05:12:19;;;;;;;;;;;;;;;17.73;64.70;100104.94;4228539;27;20496;-67
2023/09/21 05:14:22;;;;;;;;;;;;;;;17.71;64.90;100110.66;4237699;27;20010;-67
2023/09/21 05:16:24;;;;;;;;;;;;;;;17.68;64.86;100108.41;4229730;28;20338;-67
2023/09/21 05:18:26;;;;;;;;;;;;;;;17.68;64.86;100108.41;4230263;28;20046;-67
2023/09/21 05:20:28;;;;;;;;;;;;;;;17.66;64.93;100105.06;4228388;28;20003;-67
2023/09/21 05:22:30;;;;;;;;;;;;;;;17.66;64.82;100105.06;4228719;28;20043;-67
2023/09/21 05:24:32;;;;;;;;;;;;;;;17.65;64.90;100106.97;4228998;28;20086;-67
2023/09/21 05:26:34;;;;;;;;;;;;;;;17.65;65.14;100100.69;4228446;28;20015;-67
2023/09/21 05:28:36;;;;;;;;;;;;;;;17.64;65.01;100099.00;4229813;28;20023;-67
2023/09/21 05:30:41;;;;;;;;;;;;;;;17.64;65.03;100104.47;4228203;27;20006;-67
2023/09/21 05:32:43;;;;;;;;;;;;;;;17.63;65.07;100105.53;4237585;27;20022;-66
2023/09/21 05:34:47;;;;;;;;;;;;;;;17.64;65.19;100099.84;4228371;28;20346;-67
2023/09/21 05:36:50;;;;;;;;;;;;;;;17.66;65.31;100102.31;4227951;28;20448;-67
2023/09/21 05:38:52;;;;;;;;;;;;;;;17.69;65.02;100099.13;4228143;28;20010;-67
2023/09/21 05:40:54;;;;;;;;;;;;;;;17.70;65.08;100099.97;4226882;28;20034;-67
2023/09/21 05:42:56;;;;;;;;;;;;;;;17.72;65.14;100103.28;4228711;28;19930;-67
2023/09/21 05:44:58;;;;;;;;;;;;;;;17.76;65.17;100104.47;4228862;28;20022;-67
2023/09/21 05:47:01;;;;;;;;;;;;;;;17.77;64.89;100109.69;4229350;28;20035;-67
2023/09/21 05:49:04;;;;;;;;;;;;;;;17.79;64.96;100102.09;4229905;28;20385;-67
2023/09/21 05:51:09;;;;;;;;;;;;;;;17.82;64.80;100098.88;4228971;28;20018;-67
2023/09/21 05:53:11;;;;;;;;;;;;;;;17.85;64.81;100097.53;4228723;28;20338;-67
2023/09/21 05:55:16;;;;;;;;;;;;;;;17.88;64.79;100097.09;4229235;28;20011;-66
2023/09/21 05:57:18;;;;;;;;;;;;;;;17.91;64.75;100101.25;4229100;28;20031;-67
2023/09/21 05:59:22;;;;;;;;;;;;;;;17.93;64.72;100099.09;4228041;28;20054;-68
2023/09/21 06:01:24;;;;;;;;;;;;;;;17.93;64.67;100105.41;4227587;28;20023;-67
2023/09/21 06:03:28;;;;;;;;;;;;;;;17.96;64.73;100095.88;4228762;28;20810;-68
2023/09/21 06:05:30;;;;;;;;;;;;;;;17.96;64.69;100102.19;4229905;28;20050;-68
2023/09/21 06:07:34;;;;;;;;;;;;;;;17.99;64.73;100104.44;4229014;28;20014;-67
2023/09/21 06:09:36;;;;;;;;;;;;;;;18.00;64.69;100088.88;4226428;28;20440;-67
2023/09/21 06:11:39;;;;;;;;;;;;;;;18.01;64.73;100094.09;4226534;28;20473;-68
2023/09/21 06:13:41;;;;;;;;;;;;;;;18.03;64.88;100098.50;4229059;28;20356;-67
2023/09/21 06:15:45;;;;;;;;;;;;;;;18.03;64.75;100106.69;4228605;28;20425;-67
2023/09/21 06:17:47;;;;;;;;;;;;;;;18.04;64.80;100103.72;4228355;28;20019;-67
2023/09/21 06:19:52;;;;;;;;;;;;;;;18.05;64.81;100099.91;4228569;28;20023;-67
2023/09/21 06:21:56;;;;;;;;;;;;;;;18.08;64.82;100098.59;4229587;28;20360;-68
2023/09/21 06:23:58;;;;;;;;;;;;;;;18.08;64.73;100098.59;4229089;28;19924;-68
2023/09/21 06:26:00;;;;;;;;;;;;;;;18.08;64.84;100088.47;4228127;28;20014;-68
2023/09/21 06:28:02;;;;;;;;;;;;;;;18.10;64.67;100090.97;4228244;27;20051;-68
2023/09/21 06:30:05;;;;;;;;;;;;;;;18.10;64.83;100088.25;4228500;28;20023;-68
2023/09/21 06:32:08;;;;;;;;;;;;;;;18.12;64.91;100088.81;4227522;28;19927;-68
2023/09/21 06:34:10;;;;;;;;;;;;;;;18.13;64.71;100085.03;4220442;28;20026;-68
2023/09/21 06:36:19;;;;;;;;;;;;;;;18.14;64.72;100089.44;4221646;28;21842;-68
2023/09/21 06:38:21;;;;;;;;;;;;;;;18.16;64.86;100081.81;4215430;28;20297;-67
2023/09/21 06:40:24;;;;;;;;;;;;;;;18.18;64.83;100083.22;4226030;28;20010;-67
2023/09/21 06:42:26;;;;;;;;;;;;;;;18.23;64.73;100078.91;4227446;28;20066;-67
2023/09/21 06:44:29;;;;;;;;;;;;;;;18.25;64.79;100085.81;4227252;28;19923;-68
2023/09/21 06:46:31;;;;;;;;;;;;;;;18.26;64.62;100079.28;4226857;28;20091;-67
2023/09/21 06:48:33;;;;;;;;;;;;;;;18.29;64.63;100078.78;4227536;28;20010;-68
2023/09/21 06:50:37;;;;;;;;;;;;;;;18.33;64.24;100074.47;4228326;28;20023;-67
2023/09/21 06:52:40;;;;;;;;;;;;;;;18.36;64.26;100076.72;4226121;28;20031;-66
2023/09/21 06:54:42;;;;;;;;;;;;;;;18.40;64.03;100078.97;4226641;28;20023;-68
2023/09/21 06:56:44;;;;;;;;;;;;;;;18.41;63.86;100075.19;4227410;28;20023;-68
2023/09/21 06:58:46;;;;;;;;;;;;;;;18.48;63.82;100079.41;4227387;28;20019;-67
2023/09/21 07:00:48;;;;;;;;;;;;;;;18.53;63.76;100076.75;4225558;28;20453;-68
2023/09/21 07:02:50;;;;;;;;;;;;;;;18.55;63.63;100071.88;4227511;28;20470;-68
2023/09/21 07:04:53;;;;;;;;;;;;;;;18.59;63.55;100077.69;4219013;28;20308;-68
2023/09/21 07:06:54;;;;;;;;;;;;;;;18.63;63.57;100070.63;4221552;28;20373;-68
2023/09/21 07:08:59;;;;;;;;;;;;;;;18.67;63.45;100071.81;4228598;28;20018;-68
2023/09/21 07:11:01;;;;;;;;;;;;;;;18.71;63.28;100069.41;4227942;28;20022;-68
2023/09/21 07:13:03;;;;;;;;;;;;;;;18.76;63.49;100063.19;4227422;28;20014;-68
2023/09/21 07:15:07;;;;;;;;;;;;;;;18.79;62.77;100068.16;4228811;28;20023;-68
2023/09/21 07:17:09;;;;;;;;;;;;;;;18.83;62.33;100061.13;4227558;28;20022;-68
2023/09/21 07:19:11;;;;;;;;;;;;;;;18.88;62.04;100062.06;4228503;28;20027;-68
2023/09/21 07:21:13;;;;;;;;;;;;;;;18.93;62.31;100072.25;4227925;28;20019;-68
2023/09/21 07:23:15;;;;;;;;;;;;;;;18.97;62.30;100067.97;4228261;28;20460;-68
2023/09/21 07:25:18;;;;;;;;;;;;;;;19.01;62.02;100071.03;4228488;28;19963;-68
2023/09/21 07:27:21;;;;;;;;;;;;;;;19.05;61.59;100072.19;4228416;28;20035;-66
2023/09/21 07:29:24;;;;;;;;;;;;;;;19.09;61.56;100070.63;4228055;28;20030;-68
2023/09/21 07:31:26;;;;;;;;;;;;;;;19.14;61.34;100069.84;4226663;28;20022;-68
2023/09/21 07:33:30;;;;;;;;;;;;;;;19.18;61.19;100071.00;4228470;28;20019;-67
2023/09/21 07:35:32;;;;;;;;;;;;;;;19.22;61.08;100064.78;4227767;28;20476;-69
2023/09/21 07:37:34;;;;;;;;;;;;;;;19.28;60.73;100076.66;4229144;28;20003;-67
2023/09/21 07:39:36;;;;;;;;;;;;;;;19.32;60.93;100068.75;4227801;28;20027;-67
2023/09/21 07:41:40;;;;;;;;;;;;;;;19.36;60.74;100068.00;4227408;28;20356;-68
2023/09/21 07:43:42;;;;;;;;;;;;;;;19.41;60.73;100061.78;4227916;28;20022;-68
2023/09/21 07:45:46;;;;;;;;;;;;;;;19.47;60.57;100065.41;4226578;28;20446;-68
2023/09/21 07:47:49;;;;;;;;;;;;;;;19.50;60.57;100065.75;4227852;28;20007;-68
2023/09/21 07:49:54;;;;;;;;;;;;;;;19.54;60.36;100058.66;4220423;28;20026;-68
2023/09/21 07:51:56;;;;;;;;;;;;;;;19.58;60.29;100053.53;4226575;28;20018;-68
2023/09/21 07:54:00;;;;;;;;;;;;;;;19.62;60.23;100060.13;4227554;28;20023;-68
2023/09/21 07:56:05;;;;;;;;;;;;;;;19.67;60.17;100052.00;4228604;28;20031;-68
2023/09/21 07:58:09;;;;;;;;;;;;;;;19.69;59.91;100052.56;4227435;28;20449;-68
2023/09/21 08:00:13;;;;;;;;;;;;;;;19.74;60.15;100049.88;4225008;28;20019;-68
2023/09/21 08:02:16;;;;;;;;;;;;;;;19.78;60.08;100056.56;4226681;28;20026;-67
2023/09/21 08:04:20;;;;;;;;;;;;;;;19.82;59.98;100042.34;4227200;28;20066;-68
2023/09/21 08:06:22;;;;;;;;;;;;;;;19.86;59.99;100049.81;4231509;28;20001;-68
2023/09/21 08:08:25;;;;;;;;;;;;;;;19.90;59.98;100044.63;4231730;28;20852;-67
2023/09/21 08:10:27;;;;;;;;;;;;;;;19.93;60.10;100041.38;4230397;28;20605;-68
2023/09/21 08:12:30;;;;;;;;;;;;;;;19.97;59.93;100035.13;4230232;28;20027;-68
2023/09/21 08:14:34;;;;;;;;;;;;;;;20.02;59.83;100030.81;4230925;28;20342;-68
2023/09/21 08:16:37;;;;;;;;;;;;;;;20.06;59.79;100026.44;4230682;28;20014;-69
2023/09/21 08:18:39;;;;;;;;;;;;;;;20.10;60.00;100027.59;4229950;28;20437;-68
2023/09/21 08:20:41;;;;;;;;;;;;;;;20.13;59.99;100027.91;4230330;28;20062;-68
2023/09/21 08:22:47;;;;;;;;;;;;;;;20.19;59.79;100030.69;4230724;28;20384;-68
2023/09/21 08:24:49;;;;;;;;;;;;;;;20.22;59.59;100025.53;4231675;28;20019;-69
2023/09/21 08:26:51;;;;;;;;;;;;;;;20.28;59.54;100027.25;4231253;28;20409;-68
2023/09/21 08:28:53;;;;;;;;;;;;;;;20.33;59.63;100031.94;4229571;28;20014;-68
2023/09/21 08:30:57;;;;;;;;;;;;;;;20.38;59.58;100032.00;4228544;28;20018;-68
2023/09/21 08:32:59;;;;;;;;;;;;;;;20.45;59.63;100034.50;4229705;28;20019;-68
2023/09/21 08:35:01;;;;;;;;;;;;;;;20.51;59.68;100022.50;4231201;28;20026;-67
2023/09/21 08:37:04;;;;;;;;;;;;;;;20.59;59.09;100021.19;4230911;28;20010;-68
2023/09/21 08:39:07;;;;;;;;;;;;;;;20.67;59.00;100023.50;4230682;28;20019;-68
2023/09/21 08:41:09;;;;;;;;;;;;;;;20.78;58.97;100024.41;4227715;28;20023;-67
2023/09/21 08:43:11;;;;;;;;;;;;;;;20.90;58.63;100021.47;4230687;28;20026;-67
2023/09/21 08:45:13;;;;;;;;;;;;;;;21.02;58.31;100027.63;4229850;28;20019;-68
2023/09/21 08:47:15;;;;;;;;;;;;;;;21.17;58.19;100032.38;4229981;28;19928;-67
2023/09/21 08:49:18;;;;;;;;;;;;;;;21.31;57.44;100025.31;4229733;28;20014;-67
2023/09/21 08:51:20;;;;;;;;;;;;;;;21.47;57.29;100023.47;4229163;28;20349;-67
2023/09/21 08:53:23;;;;;;;;;;;;;;;21.63;56.76;100029.06;4229217;28;20031;-68
2023/09/21 08:55:24;;;;;;;;;;;;;;;21.77;56.57;100028.31;4230616;28;20046;-67
2023/09/21 08:57:26;;;;;;;;;;;;;;;21.91;56.16;100028.66;4230054;28;20113;-69
2023/09/21 08:59:28;;;;;;;;;;;;;;;22.06;56.08;100024.28;4228992;28;20019;-69
2023/09/21 09:01:30;;;;;;;;;;;;;;;22.19;55.89;100021.00;4228591;28;20022;-68
2023/09/21 09:03:34;;;;;;;;;;;;;;;22.29;55.43;100018.28;4228912;28;20346;-68
2023/09/21 09:05:36;;;;;;;;;;;;;;;22.41;55.23;100025.47;4229044;28;20460;-68
2023/09/21 09:07:39;;;;;;;;;;;;;;;22.48;54.66;100026.84;4229182;28;19924;-68
2023/09/21 09:09:41;;;;;;;;;;;;;;;22.58;54.50;100028.78;4228490;28;20015;-68
2023/09/21 09:11:45;;;;;;;;;;;;;;;22.65;54.65;100031.28;4229019;27;20028;-68
2023/09/21 09:13:49;;;;;;;;;;;;;;;22.71;54.74;100027.44;4230094;28;20026;-67
2023/09/21 09:15:52;;;;;;;;;;;;;;;22.77;54.42;100014.47;4220542;28;20024;-67
2023/09/21 09:17:56;;;;;;;;;;;;;;;22.80;54.37;100020.25;4229670;27;20019;-66
2023/09/21 09:20:02;;;;;;;;;;;;;;;22.82;54.15;100026.31;4229308;28;20046;-67
2023/09/21 09:22:04;;;;;;;;;;;;;;;22.85;53.88;100023.00;4229176;28;20034;-67
2023/09/21 09:24:08;;;;;;;;;;;;;;;22.84;54.24;100021.34;4230504;28;20039;-67
2023/09/21 09:26:11;;;;;;;;;;;;;;;22.85;54.02;100013.91;4230903;28;20030;-67
2023/09/21 09:28:13;;;;;;;;;;;;;;;22.84;54.20;100009.53;4230353;28;20355;-68
2023/09/21 09:30:20;;;;;;;;;;;;;;;22.83;54.11;99999.59;4228665;28;20529;-67
2023/09/21 09:32:22;;;;;;;;;;;;;;;22.79;54.47;100002.09;4228507;28;20024;-68
2023/09/21 09:34:24;;;;;;;;;;;;;;;22.77;54.54;99996.03;4229766;28;20018;-67
2023/09/21 09:36:27;;;;;;;;;;;;;;;22.76;54.63;99996.28;4230207;28;20023;-66
2023/09/21 09:38:29;;;;;;;;;;;;;;;22.75;54.53;99992.72;4230293;28;20023;-68
2023/09/21 09:40:32;;;;;;;;;;;;;;;22.72;54.46;99984.22;4228671;28;20023;-66
2023/09/21 09:42:34;;;;;;;;;;;;;;;22.70;54.73;99987.22;4228899;28;20014;-68
2023/09/21 09:44:37;;;;;;;;;;;;;;;22.67;54.88;99980.34;4226971;28;20018;-67
2023/09/21 09:46:41;;;;;;;;;;;;;;;22.66;54.94;99977.88;4226388;28;20002;-68
2023/09/21 09:48:43;;;;;;;;;;;;;;;22.64;54.82;99980.09;4227855;28;19924;-67
2023/09/21 09:50:46;;;;;;;;;;;;;;;22.63;54.87;99972.91;4228335;28;20058;-68
2023/09/21 09:52:50;;;;;;;;;;;;;;;22.61;54.84;99975.94;4227387;28;20488;-67
2023/09/21 09:54:52;;;;;;;;;;;;;;;22.60;55.06;99970.72;4228050;28;20058;-67
2023/09/21 09:56:57;;;;;;;;;;;;;;;22.59;55.14;99975.41;4228552;28;20048;-68
2023/09/21 09:58:59;;;;;;;;;;;;;;;22.57;55.25;99966.59;4229425;28;20014;-68
2023/09/21 10:01:02;;;;;;;;;;;;;;;22.57;55.05;99968.50;4228299;28;20010;-68
2023/09/21 10:03:04;;;;;;;;;;;;;;;22.55;55.24;99968.78;4228495;28;20030;-67
2023/09/21 10:05:08;;;;;;;;;;;;;;;22.55;55.21;99965.22;4228805;28;20023;-69
2023/09/21 10:07:16;;;;;;;;;;;;;;;22.54;55.31;99960.81;4237273;27;20034;-66
2023/09/21 10:09:20;;;;;;;;;;;;;;;22.54;55.43;99963.56;4229606;28;20393;-68
2023/09/21 10:11:22;;;;;;;;;;;;;;;22.52;55.52;99955.59;4229025;28;20022;-68
2023/09/21 10:13:27;;;;;;;;;;;;;;;22.52;55.30;99954.75;4229512;28;20047;-67
2023/09/21 10:15:29;;;;;;;;;;;;;;;22.52;55.65;99952.00;4229574;28;20025;-66
2023/09/21 10:17:31;;;;;;;;;;;;;;;22.50;55.69;99946.78;4229439;28;20023;-67
2023/09/21 10:19:38;;;;;;;;;;;;;;;22.51;55.47;99953.94;4226166;28;20625;-67
2023/09/21 10:21:43;;;;;;;;;;;;;;;22.52;55.41;99944.56;4227806;28;20363;-68
2023/09/21 10:24:02;;;;;;;;;;;;;;;22.53;55.43;99954.50;4227872;28;20019;-68
2023/09/21 10:26:07;;;;;;;;;;;;;;;22.57;55.57;99941.00;4219241;28;20584;-68
2023/09/21 10:28:22;;;;;;;;;;;;;;;22.60;55.70;99943.19;4223289;28;20097;-65
2023/09/21 10:30:24;;;;;;;;;;;;;;;22.62;55.59;99928.06;4226086;27;19928;-65
2023/09/21 10:32:27;;;;;;;;;;;;;;;22.66;55.78;99928.34;4226473;28;20018;-67